New Harbor, ME

43° 52' 34"N, 69° 29' 40"W, Elevation 65 ft.
Eastern Time

Hourly observations for the last 72 hours

Date Time Temperature (°F) Humi-
dity

(%)
Wind
(mph)
Pressure Rain (in) Sun
(W/m2)
ET
(in)
Air Dew 6 Hour 1 Hr 3 Hr 6 Hr Day
Alt
(in)
Sea
Level

(mb)
Max Min
22 17:00 53.4 32.6 45 SSW 6 G 11 30.24 1024.0 0.00 413 0.128
22 16:00 56.4 39.0 52 SE 2 G 7 30.25 1024.3 0.00 587 0.113
22 15:00 54.7 30.2 39 SSE 10 G 16 30.25 1024.6 0.00 729 0.096
22 14:00 55.1 31.2 57.4 42.6 40 S 8 G 14 30.26 1024.6 0.00 830 0.078
22 13:00 55.6 29.1 36 S 3 G 8 30.27 1025.0 0.00 872 0.060
22 12:00 56.0 25.8 31 NNW 2 G 11 30.27 1025.2 0.00 805 0.041
22 11:00 53.8 23.1 30 NNE 7 G 12 30.27 1025.2 0.00 795 0.024
22 10:00 52.8 24.5 33 NW 6 G 11 30.28 1025.3 0.00 682 0.011
22 09:00 50.5 27.7 41 NNW 3 G 8 30.28 1025.4 0.00 320 0.004
22 08:00 42.6 28.0 42.6 30.0 56 NNW 5 G 9 30.28 1025.3 0.00 148 0.002
22 07:00 34.1 27.3 76 NW 4 G 8 30.27 1025.0 0.00 30 0.001
22 06:00 30.2 26.8 87 NW 2 G 5 30.26 1024.6 0.00 11 0.001
22 05:00 31.0 27.3 86 WNW 2 G 4 30.24 1024.1 0.00 0 0.001
22 04:00 31.2 27.5 86 NW 1 G 2 30.24 1024.0 0.00 0 0.001
22 03:00 31.8 28.1 86 NW 1 G 2 30.24 1023.9 0.00 0 0.001
22 02:00 32.5 27.9 48.7 32.5 83 NW 1 G 2 30.23 1023.8 0.00 0 0.001
22 01:00 34.6 28.5 78 NW 1 G 2 30.24 1024.0 0.00 0 0.000
22 00:00 37.4 28.9 71 NW 1 G 1 30.24 1023.9 0.00 0 0.138
21 23:00 41.8 27.7 57 NW 1 G 3 30.24 1024.1 0.00 0 0.137
21 22:00 45.7 26.6 47 NNW 2 G 6 30.24 1024.0 0.00 0 0.135
21 21:00 47.3 25.9 43 NW 3 G 8 30.22 1023.4 0.00 0 0.133
21 20:00 48.7 26.1 57.5 48.7 41 WNW 2 G 8 30.20 1022.9 0.00 0 0.131
21 19:00 50.3 25.0 37 WNW 6 G 12 30.17 1021.7 0.00 23 0.127
21 18:00 54.1 26.4 34 WNW 6 G 14 30.15 1021.0 0.00 149 0.118
21 17:00 55.8 27.1 33 NW 4 G 12 30.14 1020.5 0.00 506 0.105
21 16:00 55.8 30.6 38 NW 7 G 16 30.13 1020.5 0.00 664 0.090
21 15:00 55.4 28.2 35 WNW 7 G 15 30.14 1020.7 0.00 209 0.077
21 14:00 55.5 30.3 55.7 41.0 38 WNW 4 G 18 30.15 1021.1 0.00 343 0.058
21 13:00 54.5 30.7 40 WNW 6 G 13 30.16 1021.4 0.00 765 0.044
21 12:00 51.0 29.3 43 WSW 5 G 14 30.18 1021.9 0.00 350 0.034
21 11:00 48.7 29.9 48 NW 8 G 14 30.19 1022.2 0.00 318 0.025
21 10:00 50.2 30.7 47 NNW 7 G 13 30.19 1022.4 0.00 638 0.013
21 09:00 46.8 32.8 58 N 5 G 14 30.19 1022.6 0.00 443 0.006
21 08:00 41.0 31.3 41.0 31.5 68 NW 5 G 12 30.20 1022.8 0.00 128 0.004
21 07:00 34.8 29.9 82 NW 3 G 8 30.20 1022.7 0.00 32 0.003
21 06:00 32.3 28.6 86 NNW 2 G 4 30.19 1022.3 0.00 9 0.003
21 05:00 31.8 28.7 88 WNW 1 G 6 30.17 1021.7 0.00 0 0.003
21 04:00 33.2 29.2 85 NNW 1 G 2 30.15 1021.2 0.00 0 0.003
21 03:00 36.4 30.8 80 N 1 G 4 30.14 1020.8 0.00 0 0.002
21 02:00 38.5 31.6 45.5 38.5 76 NNW 1 G 8 30.13 1020.4 0.00 0 0.001
21 01:00 40.3 32.3 73 NNW 2 G 11 30.13 1020.4 0.00 0 0.000
21 00:00 40.4 32.4 73 NW 3 G 9 30.14 1020.5 0.00 0 0.085
20 23:00 40.7 32.7 73 NW 2 G 9 30.13 1020.3 0.00 0 0.084
20 22:00 42.5 33.1 69 NW 4 G 13 30.11 1019.7 0.00 0 0.083
20 21:00 43.8 33.6 67 NW 8 G 13 30.10 1019.5 0.00 0 0.081
20 20:00 45.4 32.7 52.6 45.4 61 NW 6 G 14 30.07 1018.3 0.00 0 0.080
20 19:00 46.7 33.1 59 NW 3 G 16 30.03 1017.0 0.00 16 0.078
20 18:00 47.8 33.7 58 NNW 5 G 12 30.00 1016.0 0.00 149 0.075
20 17:00 48.9 32.5 53 NW 6 G 13 29.97 1015.0 0.00 79 0.071
20 16:00 48.7 32.8 54 NNW 5 G 15 29.95 1014.2 0.00 58 0.068
20 15:00 49.9 31.5 49 N 3 G 13 29.92 1013.3 0.00 134 0.063
20 14:00 52.6 32.9 52.6 38.7 47 NW 5 G 18 29.91 1012.7 0.00 287 0.054
20 13:00 50.3 34.8 55 NNW 7 G 16 29.89 1012.1 0.00 260 0.046
20 12:00 50.7 34.7 54 W 5 G 18 29.88 1011.7 0.00 288 0.035
20 11:00 49.5 34.9 57 NNW 7 G 16 29.86 1011.3 0.00 976 0.023
20 10:00 45.9 35.2 66 N 9 G 18 29.85 1010.9 0.00 793 0.014
20 09:00 45.0 36.9 73 NNW 5 G 11 29.83 1010.3 0.00 485 0.008
20 08:00 38.7 35.2 38.8 36.2 87 NW 5 G 13 29.83 1010.2 0.00 135 0.006
20 07:00 36.3 33.4 89 NW 4 G 9 29.82 1009.9 0.00 53 0.005
20 06:00 37.5 32.2 81 WNW 5 G 11 29.79 1008.9 0.00 0 0.005
20 05:00 37.7 32.1 80 NW 4 G 12 29.76 1008.0 0.00 0 0.004
20 04:00 38.1 31.9 78 NW 3 G 7 29.75 1007.4 0.00 0 0.003
20 03:00 38.0 31.8 78 NW 4 G 7 29.73 1006.9 0.00 0 0.002
20 02:00 38.3 32.7 40.7 38.2 80 NW 1 G 10 29.73 1006.7 0.00 0 0.001
20 01:00 38.6 33.6 82 NW 2 G 8 29.72 1006.3 0.00 0 0.000
20 00:00 38.9 33.9 82 N 3 G 8 29.72 1006.4 0.01 0 0.047
19 23:00 39.3 34.6 83 NNW 4 G 9 29.71 1006.0 0.01 0 0.047
19 22:00 39.4 35.3 85 NW 3 G 9 29.71 1006.3 0.01 0 0.047
19 21:00 39.7 35.6 85 NNW 3 G 11 29.71 1006.0 0.01 0 0.046
19 20:00 40.7 37.4 46.4 40.6 88 W 2 G 8 29.69 1005.3 0.01 0.01 0.01 0 0.046
19 19:00 41.5 37.3 85 WNW 1 G 2 29.67 1004.9 0.01 0.01 25 0.045
19 18:00 41.3 37.1 85 WSW 1 G 6 29.66 1004.5 0.00 58 0.044

Data generated by WxSolution Version 1.9.1.2, Build 2018.04.08.